createdAt,value
2022-10-08T00:01:25.904Z,41.32
2022-10-08T00:03:55.584Z,40.98
2022-10-08T00:06:25.410Z,41.38
2022-10-08T00:08:56.657Z,41.19
2022-10-08T00:11:27.644Z,41.40
2022-10-08T00:13:56.547Z,41.45
2022-10-08T00:16:26.875Z,41.37
2022-10-08T00:18:56.327Z,41.01
2022-10-08T00:21:26.151Z,41.23
2022-10-08T00:23:55.737Z,41.10
2022-10-08T00:26:25.911Z,41.46
2022-10-08T00:28:56.229Z,41.12
2022-10-08T00:31:26.848Z,41.29
2022-10-08T00:33:56.587Z,41.13
2022-10-08T00:36:26.350Z,41.25
2022-10-08T00:38:58.101Z,41.29
2022-10-08T00:41:28.337Z,41.15
2022-10-08T00:43:58.014Z,40.96
2022-10-08T00:46:30.248Z,41.27
2022-10-08T00:49:02.918Z,41.15
2022-10-08T00:51:33.126Z,41.37
2022-10-08T00:54:03.977Z,41.24
2022-10-08T00:56:34.585Z,41.22
2022-10-08T00:59:03.008Z,41.21
2022-10-08T01:01:30.900Z,40.98
2022-10-08T01:04:00.185Z,41.19
2022-10-08T01:06:31.001Z,41.31
2022-10-08T01:09:06.460Z,41.40
2022-10-08T01:11:49.052Z,41.20
2022-10-08T01:14:30.056Z,41.36
2022-10-08T01:17:07.310Z,41.26
2022-10-08T01:19:55.961Z,41.47
2022-10-08T01:22:41.366Z,41.43
2022-10-08T01:25:34.639Z,41.61
2022-10-08T01:28:21.855Z,41.66
2022-10-08T01:30:56.341Z,41.65
2022-10-08T01:33:28.073Z,41.66
2022-10-08T01:35:59.607Z,41.58
2022-10-08T01:38:31.569Z,41.39
2022-10-08T01:41:03.784Z,41.60
2022-10-08T01:43:36.792Z,41.79
2022-10-08T01:46:09.516Z,41.54
2022-10-08T01:48:41.129Z,41.64
2022-10-08T01:51:15.113Z,41.57
2022-10-08T01:53:46.988Z,41.40
2022-10-08T01:56:20.925Z,41.53
2022-10-08T01:58:54.447Z,41.67
2022-10-08T02:01:28.836Z,41.89
2022-10-08T02:04:14.318Z,41.86
2022-10-08T02:06:46.052Z,42.08
2022-10-08T02:09:14.054Z,41.82
2022-10-08T02:11:41.953Z,41.93
2022-10-08T02:14:11.872Z,42.14
2022-10-08T02:16:52.335Z,42.12
2022-10-08T02:19:29.819Z,42.22
2022-10-08T02:22:02.556Z,42.22
2022-10-08T02:24:37.829Z,42.28
2022-10-08T02:27:09.366Z,42.37
2022-10-08T02:29:44.279Z,42.37
2022-10-08T02:32:18.630Z,42.08
2022-10-08T02:34:51.790Z,42.21
2022-10-08T02:37:25.503Z,42.61
2022-10-08T02:40:00.682Z,42.39
2022-10-08T02:42:32.133Z,42.63
2022-10-08T02:45:07.534Z,42.57
2022-10-08T02:47:38.761Z,42.56
2022-10-08T02:50:12.325Z,42.88
2022-10-08T02:52:44.407Z,43.11
2022-10-08T02:55:20.182Z,43.11
2022-10-08T02:57:55.774Z,43.17
2022-10-08T03:00:25.897Z,43.33
2022-10-08T03:02:59.462Z,43.49
2022-10-08T03:05:29.025Z,43.57
2022-10-08T03:07:58.486Z,43.30
2022-10-08T03:10:30.486Z,43.53
2022-10-08T03:13:01.939Z,43.73
2022-10-08T03:15:33.270Z,43.92
2022-10-08T03:18:03.513Z,43.94
2022-10-08T03:20:33.052Z,43.81
2022-10-08T03:23:02.733Z,43.96
2022-10-08T03:25:30.585Z,43.79
2022-10-08T03:27:58.511Z,43.90
2022-10-08T03:30:26.425Z,43.99
2022-10-08T03:32:55.749Z,44.15
2022-10-08T03:35:23.596Z,44.01
2022-10-08T03:37:53.113Z,44.19
2022-10-08T03:40:21.294Z,44.25
2022-10-08T03:42:49.577Z,44.15
2022-10-08T03:45:17.631Z,44.28
2022-10-08T03:47:45.513Z,43.90
2022-10-08T03:50:14.788Z,43.99
2022-10-08T03:52:42.692Z,44.30
2022-10-08T03:55:10.936Z,44.10
2022-10-08T03:57:38.797Z,44.07
2022-10-08T04:00:07.725Z,44.42
2022-10-08T04:02:35.723Z,44.24
2022-10-08T04:05:03.633Z,44.31
2022-10-08T04:07:32.945Z,44.18
2022-10-08T04:10:00.798Z,44.46
2022-10-08T04:12:30.033Z,44.38
2022-10-08T04:14:57.897Z,44.37
2022-10-08T04:17:25.825Z,44.28
2022-10-08T04:19:53.722Z,44.53
2022-10-08T04:22:21.623Z,44.37
2022-10-08T04:24:50.866Z,44.11
2022-10-08T04:27:18.750Z,44.44
2022-10-08T04:29:46.606Z,44.41
2022-10-08T04:32:14.461Z,44.09
2022-10-08T04:34:42.310Z,44.53
2022-10-08T04:37:10.181Z,44.62
2022-10-08T04:39:38.012Z,44.63
2022-10-08T04:42:07.365Z,44.38
2022-10-08T04:44:35.258Z,44.52
2022-10-08T04:47:03.125Z,44.59
2022-10-08T04:49:30.986Z,44.20
2022-10-08T04:51:58.856Z,44.27
2022-10-08T04:54:27.197Z,44.41
2022-10-08T04:56:55.240Z,44.56
2022-10-08T04:59:24.517Z,44.58
2022-10-08T05:01:52.991Z,44.32
2022-10-08T05:04:20.942Z,44.18
2022-10-08T05:06:48.861Z,44.19
2022-10-08T05:09:16.925Z,44.00
2022-10-08T05:11:44.803Z,44.30
2022-10-08T05:14:12.701Z,44.29
2022-10-08T05:16:41.932Z,44.18
2022-10-08T05:19:10.149Z,44.17
2022-10-08T05:21:38.063Z,44.15
2022-10-08T05:24:08.177Z,43.90
2022-10-08T05:26:57.549Z,44.28
2022-10-08T05:29:26.481Z,44.26
2022-10-08T05:31:55.755Z,44.21
2022-10-08T05:34:24.056Z,44.17
2022-10-08T05:36:51.925Z,44.00
2022-10-08T05:39:19.814Z,44.16
2022-10-08T05:41:47.694Z,43.89
2022-10-08T05:44:15.604Z,43.89
2022-10-08T05:46:43.585Z,44.10
2022-10-08T05:49:18.837Z,44.02
2022-10-08T05:51:46.913Z,44.17
2022-10-08T05:54:15.174Z,43.77
2022-10-08T05:56:43.446Z,44.13
2022-10-08T05:59:16.949Z,43.75
2022-10-08T06:01:45.249Z,43.92
2022-10-08T06:04:15.254Z,44.01
2022-10-08T06:06:44.476Z,43.81
2022-10-08T06:09:14.379Z,43.78
2022-10-08T06:11:43.556Z,43.89
2022-10-08T06:14:12.742Z,43.85
2022-10-08T06:16:41.357Z,44.18
2022-10-08T06:19:10.160Z,44.01
2022-10-08T06:21:39.440Z,43.97
2022-10-08T06:24:09.693Z,43.82
2022-10-08T06:26:38.857Z,43.66
2022-10-08T06:29:07.711Z,43.97
2022-10-08T06:31:36.392Z,44.14
2022-10-08T06:34:05.182Z,44.20
2022-10-08T06:36:34.643Z,43.89
2022-10-08T06:39:07.161Z,43.86
2022-10-08T06:41:35.795Z,44.29
2022-10-08T06:44:05.175Z,44.09
2022-10-08T06:46:33.748Z,43.92
2022-10-08T06:49:02.664Z,43.88
2022-10-08T06:51:31.278Z,43.79
2022-10-08T06:54:06.983Z,43.72
2022-10-08T06:56:38.567Z,43.82
2022-10-08T06:59:07.322Z,43.85
2022-10-08T07:01:36.147Z,43.63
2022-10-08T07:04:05.662Z,43.90
2022-10-08T07:06:33.846Z,43.47
2022-10-08T07:09:03.141Z,43.40
2022-10-08T07:11:32.397Z,43.62
2022-10-08T07:14:01.917Z,43.54
2022-10-08T07:16:29.898Z,43.55
2022-10-08T07:18:58.865Z,43.15
2022-10-08T07:21:27.508Z,43.51
2022-10-08T07:23:55.679Z,43.42
2022-10-08T07:26:24.874Z,43.26
2022-10-08T07:28:55.372Z,42.95
2022-10-08T07:31:28.076Z,43.15
2022-10-08T07:33:56.355Z,42.94
2022-10-08T07:36:25.783Z,42.72
2022-10-08T07:38:57.509Z,42.87
2022-10-08T07:41:26.177Z,43.08
2022-10-08T07:43:55.384Z,42.79
2022-10-08T07:46:24.641Z,42.62
2022-10-08T07:48:54.749Z,42.44
2022-10-08T07:51:22.637Z,42.48
2022-10-08T07:53:50.864Z,42.28
2022-10-08T07:56:20.733Z,42.00
2022-10-08T07:58:49.625Z,42.22
2022-10-08T08:01:21.205Z,41.78
2022-10-08T08:03:55.607Z,42.07
2022-10-08T08:06:25.190Z,42.02
2022-10-08T08:08:53.569Z,41.97
2022-10-08T08:11:23.535Z,41.93
2022-10-08T08:13:52.192Z,41.71
2022-10-08T08:16:21.683Z,41.53
2022-10-08T08:18:51.397Z,41.57
2022-10-08T08:21:22.649Z,41.30
2022-10-08T08:23:53.381Z,41.58
2022-10-08T08:26:25.076Z,41.46
2022-10-08T08:28:54.314Z,41.52
2022-10-08T08:31:25.224Z,41.15
2022-10-08T08:33:54.967Z,41.13
2022-10-08T08:36:28.777Z,41.15
2022-10-08T08:38:57.861Z,41.04
2022-10-08T08:41:39.513Z,40.67
2022-10-08T08:44:12.419Z,40.72
2022-10-08T08:46:44.580Z,41.04
2022-10-08T08:49:20.963Z,40.51
2022-10-08T08:51:50.353Z,40.60
2022-10-08T08:54:18.298Z,40.88
2022-10-08T08:56:46.361Z,40.44
2022-10-08T08:59:25.482Z,40.47
2022-10-08T09:01:57.251Z,40.69
2022-10-08T09:04:32.978Z,40.54
2022-10-08T09:07:06.305Z,40.55
2022-10-08T09:09:41.039Z,40.36
2022-10-08T09:12:20.786Z,40.45
2022-10-08T09:14:54.467Z,40.56
2022-10-08T09:17:29.307Z,40.21
2022-10-08T09:19:57.409Z,40.10
2022-10-08T09:22:29.621Z,40.22
2022-10-08T09:25:01.245Z,40.10
2022-10-08T09:27:44.931Z,39.94
2022-10-08T09:30:31.449Z,40.07
2022-10-08T09:33:01.519Z,39.92
2022-10-08T09:35:29.472Z,40.05
2022-10-08T09:38:02.170Z,39.77
2022-10-08T09:40:33.578Z,39.97
2022-10-08T09:43:11.792Z,39.58
2022-10-08T09:45:41.534Z,39.62
2022-10-08T09:48:21.564Z,39.53
2022-10-08T09:50:56.293Z,39.61
2022-10-08T09:53:29.515Z,39.64
2022-10-08T09:56:00.515Z,39.48
2022-10-08T09:58:32.298Z,39.23
2022-10-08T10:01:06.820Z,39.60
2022-10-08T10:03:36.441Z,39.25
2022-10-08T10:06:04.786Z,39.27
2022-10-08T10:08:51.592Z,39.02
2022-10-08T10:11:26.789Z,39.40
2022-10-08T10:13:57.234Z,39.16
2022-10-08T10:16:28.156Z,39.04
2022-10-08T10:19:00.603Z,39.00
2022-10-08T10:21:36.900Z,38.80
2022-10-08T10:24:29.173Z,39.05
2022-10-08T10:27:00.892Z,38.76
2022-10-08T10:29:38.721Z,38.84
2022-10-08T10:32:14.554Z,38.62
2022-10-08T10:34:46.854Z,38.71
2022-10-08T10:37:20.129Z,38.55
2022-10-08T10:39:53.782Z,38.50
2022-10-08T10:42:31.016Z,38.34
2022-10-08T10:45:04.473Z,38.58
2022-10-08T10:47:33.349Z,38.63
2022-10-08T10:50:02.822Z,38.47
2022-10-08T10:52:45.599Z,38.24
2022-10-08T10:55:23.576Z,38.10
2022-10-08T10:58:22.519Z,38.12
2022-10-08T11:00:58.385Z,38.27
2022-10-08T11:03:36.249Z,38.25
2022-10-08T11:06:22.569Z,37.92
2022-10-08T11:08:57.145Z,38.12
2022-10-08T11:11:33.462Z,38.18
2022-10-08T11:14:36.821Z,38.03
2022-10-08T11:17:18.669Z,37.95
2022-10-08T11:19:57.443Z,38.11
2022-10-08T11:22:34.181Z,37.78
2022-10-08T11:25:20.833Z,37.98
2022-10-08T11:28:02.233Z,37.72
2022-10-08T11:30:45.352Z,37.61
2022-10-08T11:33:16.494Z,37.77
2022-10-08T11:35:51.099Z,37.49
2022-10-08T11:38:26.115Z,37.62
2022-10-08T11:41:00.262Z,38.52
2022-10-08T11:43:38.314Z,39.67
2022-10-08T11:46:29.550Z,40.73
2022-10-08T11:52:14.936Z,40.89
2022-10-08T11:54:43.032Z,40.68
2022-10-08T11:57:20.296Z,40.64
2022-10-08T11:59:56.858Z,41.15
2022-10-08T12:02:28.086Z,41.60
2022-10-08T12:04:58.488Z,41.15
2022-10-08T12:07:31.788Z,40.94
2022-10-08T12:10:30.051Z,40.35
2022-10-08T12:13:29.741Z,40.21
2022-10-08T12:16:07.961Z,39.64
2022-10-08T12:18:54.202Z,39.32
2022-10-08T12:21:52.395Z,39.19
2022-10-08T12:24:53.840Z,38.91
2022-10-08T12:27:23.836Z,39.12
2022-10-08T12:29:55.713Z,38.64
2022-10-08T12:32:26.264Z,38.27
2022-10-08T12:34:54.396Z,38.06
2022-10-08T12:37:46.626Z,37.80
2022-10-08T12:40:25.061Z,37.77
2022-10-08T12:43:09.106Z,37.42
2022-10-08T12:45:49.064Z,37.34
2022-10-08T12:48:32.068Z,36.94
2022-10-08T12:51:10.284Z,36.64
2022-10-08T12:53:38.542Z,36.60
2022-10-08T12:56:06.514Z,36.56
2022-10-08T12:58:37.709Z,36.22
2022-10-08T13:01:07.023Z,36.26
2022-10-08T13:03:36.408Z,36.05
2022-10-08T13:06:17.098Z,36.12
2022-10-08T13:08:45.064Z,36.06
2022-10-08T13:11:15.274Z,35.59
2022-10-08T13:13:45.981Z,35.89
2022-10-08T13:16:16.113Z,35.78
2022-10-08T13:18:47.356Z,35.43
2022-10-08T13:21:36.722Z,35.45
2022-10-08T13:24:20.989Z,35.57
2022-10-08T13:26:50.786Z,35.53
2022-10-08T13:29:30.224Z,35.62
2022-10-08T13:32:00.268Z,35.45
2022-10-08T13:34:31.976Z,35.55
2022-10-08T13:37:02.954Z,35.62
2022-10-08T13:39:34.323Z,35.37
2022-10-08T13:42:08.153Z,35.55
2022-10-08T13:44:38.236Z,35.41
2022-10-08T13:47:06.396Z,35.67
2022-10-08T13:49:36.140Z,35.37
2022-10-08T13:52:04.248Z,35.46
2022-10-08T13:54:34.530Z,35.43
2022-10-08T13:57:02.857Z,35.51
2022-10-08T13:59:31.135Z,35.29
2022-10-08T14:01:59.106Z,35.05
2022-10-08T14:04:27.014Z,35.21
2022-10-08T14:06:58.847Z,34.86
2022-10-08T14:09:30.283Z,34.80
2022-10-08T14:12:01.338Z,35.04
2022-10-08T14:14:29.646Z,35.00
2022-10-08T14:16:57.581Z,35.30
2022-10-08T14:19:25.562Z,35.14
2022-10-08T14:21:57.748Z,35.36
2022-10-08T14:24:25.665Z,35.36
2022-10-08T14:26:53.534Z,35.34
2022-10-08T14:29:21.561Z,35.16
2022-10-08T14:31:49.482Z,34.88
2022-10-08T14:34:17.600Z,34.78
2022-10-08T14:36:45.571Z,34.91
2022-10-08T14:39:14.816Z,34.83
2022-10-08T14:41:44.302Z,34.73
2022-10-08T14:44:13.325Z,34.76
2022-10-08T14:46:41.202Z,34.41
2022-10-08T14:49:09.085Z,34.60
2022-10-08T14:51:38.760Z,34.63
2022-10-08T14:54:07.310Z,34.52
2022-10-08T14:56:43.912Z,34.35
2022-10-08T14:59:12.323Z,34.25
2022-10-08T15:01:40.838Z,34.37
2022-10-08T15:04:09.024Z,34.36
2022-10-08T15:06:38.133Z,34.19
2022-10-08T15:09:06.343Z,34.11
2022-10-08T15:11:34.228Z,34.24
2022-10-08T15:14:03.530Z,34.38
2022-10-08T15:16:31.542Z,34.16
2022-10-08T15:18:59.558Z,34.31
2022-10-08T15:21:27.549Z,34.02
2022-10-08T15:23:56.981Z,34.32
2022-10-08T15:26:24.973Z,34.27
2022-10-08T15:28:53.695Z,34.28
2022-10-08T15:31:25.128Z,34.40
2022-10-08T15:34:01.890Z,34.11
2022-10-08T15:36:31.511Z,34.36
2022-10-08T15:39:01.145Z,34.15
2022-10-08T15:41:30.422Z,34.13
2022-10-08T15:44:09.398Z,34.33
2022-10-08T15:46:39.018Z,34.54
2022-10-08T15:49:06.952Z,34.48
2022-10-08T15:51:34.985Z,34.50
2022-10-08T15:54:03.113Z,34.31
2022-10-08T15:56:31.592Z,34.56
2022-10-08T15:59:00.125Z,34.51
2022-10-08T16:01:29.603Z,34.39
2022-10-08T16:04:00.172Z,34.57
2022-10-08T16:06:29.847Z,34.50
2022-10-08T16:09:03.204Z,34.53
2022-10-08T16:11:32.746Z,34.51
2022-10-08T16:14:02.537Z,34.64
2022-10-08T16:16:31.085Z,34.52
2022-10-08T16:19:02.193Z,34.52
2022-10-08T16:21:31.906Z,34.80
2022-10-08T16:24:00.762Z,34.68
2022-10-08T16:26:31.754Z,34.66
2022-10-08T16:29:01.140Z,35.06
2022-10-08T16:31:30.467Z,34.82
2022-10-08T16:34:01.486Z,34.78
2022-10-08T16:36:31.500Z,34.75
2022-10-08T16:38:59.646Z,34.98
2022-10-08T16:41:29.791Z,35.04
2022-10-08T16:44:00.029Z,34.88
2022-10-08T16:46:30.484Z,35.12
2022-10-08T16:49:01.744Z,34.98
2022-10-08T16:51:32.105Z,35.12
2022-10-08T16:54:01.918Z,35.17
2022-10-08T16:56:31.398Z,35.05
2022-10-08T16:59:01.273Z,35.25
2022-10-08T17:01:29.703Z,35.36
2022-10-08T17:03:58.329Z,35.09
2022-10-08T17:06:29.219Z,35.10
2022-10-08T17:08:58.283Z,35.20
2022-10-08T17:11:26.620Z,35.53
2022-10-08T17:13:56.683Z,35.42
2022-10-08T17:16:27.770Z,35.47
2022-10-08T17:18:57.812Z,35.52
2022-10-08T17:21:27.629Z,35.33
2022-10-08T17:23:58.369Z,35.51
2022-10-08T17:26:28.653Z,35.31
2022-10-08T17:28:57.257Z,35.48
2022-10-08T17:31:27.300Z,35.67
2022-10-08T17:33:55.176Z,35.51
2022-10-08T17:36:25.885Z,35.61
2022-10-08T17:38:57.307Z,35.84
2022-10-08T17:41:27.346Z,35.74
2022-10-08T17:43:57.042Z,35.50
2022-10-08T17:46:26.517Z,35.55
2022-10-08T17:48:55.075Z,35.70
2022-10-08T17:51:25.164Z,35.91
2022-10-08T17:53:55.960Z,35.82
2022-10-08T17:56:24.680Z,35.66
2022-10-08T17:58:52.655Z,35.86
2022-10-08T18:01:22.325Z,35.57
2022-10-08T18:03:52.261Z,36.02
2022-10-08T18:06:20.926Z,35.92
2022-10-08T18:08:49.060Z,35.99
2022-10-08T18:11:18.317Z,35.86
2022-10-08T18:13:46.329Z,35.70
2022-10-08T18:16:15.802Z,35.84
2022-10-08T18:18:45.565Z,35.98
2022-10-08T18:21:14.668Z,36.26
2022-10-08T18:23:43.114Z,36.20
2022-10-08T18:26:16.052Z,36.14
2022-10-08T18:28:45.629Z,36.01
2022-10-08T18:31:15.029Z,35.95
2022-10-08T18:33:44.665Z,36.21
2022-10-08T18:36:14.414Z,36.13
2022-10-08T18:38:43.953Z,36.06
2022-10-08T18:41:13.772Z,35.99
2022-10-08T18:43:41.773Z,36.02
2022-10-08T18:46:11.704Z,36.41
2022-10-08T18:48:39.785Z,36.18
2022-10-08T18:51:09.436Z,36.26
2022-10-08T18:53:39.982Z,36.48
2022-10-08T18:56:09.858Z,36.06
2022-10-08T18:58:38.137Z,36.19
2022-10-08T19:01:07.227Z,36.28
2022-10-08T19:03:36.567Z,36.18
2022-10-08T19:06:08.097Z,36.47
2022-10-08T19:08:36.226Z,36.55
2022-10-08T19:11:10.758Z,36.12
2022-10-08T19:13:38.772Z,36.31
2022-10-08T19:16:13.251Z,36.33
2022-10-08T19:18:44.291Z,36.26
2022-10-08T19:21:14.219Z,36.31
2022-10-08T19:23:42.255Z,36.44
2022-10-08T19:26:10.458Z,36.41
2022-10-08T19:28:39.814Z,36.39
2022-10-08T19:31:15.818Z,36.60
2022-10-08T19:33:49.831Z,36.68
2022-10-08T19:36:18.596Z,36.47
2022-10-08T19:38:52.428Z,36.69
2022-10-08T19:41:21.066Z,36.44
2022-10-08T19:43:51.755Z,36.55
2022-10-08T19:46:20.694Z,36.75
2022-10-08T19:48:51.168Z,36.87
2022-10-08T19:51:19.998Z,36.46
2022-10-08T19:53:51.518Z,36.93
2022-10-08T19:56:21.845Z,36.64
2022-10-08T19:58:53.275Z,36.84
2022-10-08T20:01:23.550Z,36.82
2022-10-08T20:03:55.976Z,36.59
2022-10-08T20:06:26.092Z,36.52
2022-10-08T20:08:54.670Z,36.53
2022-10-08T20:11:22.939Z,36.66
2022-10-08T20:13:53.492Z,36.96
2022-10-08T20:16:23.268Z,36.67
2022-10-08T20:18:52.655Z,36.80
2022-10-08T20:21:23.038Z,37.06
2022-10-08T20:23:51.067Z,36.74
2022-10-08T20:26:20.825Z,36.95
2022-10-08T20:28:50.737Z,36.94
2022-10-08T20:31:20.792Z,36.72
2022-10-08T20:33:49.556Z,36.60
2022-10-08T20:36:18.397Z,37.00
2022-10-08T20:38:47.706Z,36.58
2022-10-08T20:41:15.590Z,36.92
2022-10-08T20:43:43.848Z,36.65
2022-10-08T20:46:13.622Z,36.70
2022-10-08T20:48:44.435Z,36.39
2022-10-08T20:51:14.985Z,36.54
2022-10-08T20:53:49.269Z,36.45
2022-10-08T20:56:18.322Z,36.94
2022-10-08T20:58:46.926Z,36.54
2022-10-08T21:01:17.810Z,36.90
2022-10-08T21:03:46.909Z,36.53
2022-10-08T21:06:16.949Z,36.80
2022-10-08T21:08:46.549Z,36.86
2022-10-08T21:11:17.652Z,36.67
2022-10-08T21:13:46.125Z,36.48
2022-10-08T21:16:16.272Z,36.43
2022-10-08T21:18:46.125Z,36.59
2022-10-08T21:21:15.768Z,36.47
2022-10-08T21:23:43.931Z,36.63
2022-10-08T21:26:16.389Z,36.66
2022-10-08T21:28:48.564Z,36.47
2022-10-08T21:31:17.675Z,36.58
2022-10-08T21:33:47.142Z,36.47
2022-10-08T21:36:17.242Z,36.64
2022-10-08T21:38:45.702Z,36.68
2022-10-08T21:41:17.040Z,36.43
2022-10-08T21:43:46.768Z,36.79
2022-10-08T21:46:16.446Z,36.68
2022-10-08T21:48:44.981Z,36.48
2022-10-08T21:51:15.185Z,36.80
2022-10-08T21:53:46.657Z,36.36
2022-10-08T21:56:19.373Z,36.48
2022-10-08T21:58:49.042Z,36.84
2022-10-08T22:01:23.140Z,36.74
2022-10-08T22:03:55.391Z,37.06
2022-10-08T22:06:23.778Z,37.12
2022-10-08T22:08:52.452Z,37.08
2022-10-08T22:11:22.030Z,37.08
2022-10-08T22:13:50.501Z,37.32
2022-10-08T22:16:21.077Z,37.22
2022-10-08T22:18:49.464Z,37.05
2022-10-08T22:21:19.291Z,37.41
2022-10-08T22:23:47.788Z,36.99
2022-10-08T22:26:17.611Z,37.02
2022-10-08T22:28:47.334Z,37.18
2022-10-08T22:31:17.067Z,37.18
2022-10-08T22:33:45.025Z,37.10
2022-10-08T22:36:15.483Z,37.26
2022-10-08T22:38:44.644Z,36.97
2022-10-08T22:41:14.770Z,36.86
2022-10-08T22:43:43.003Z,36.79
2022-10-08T22:46:16.973Z,37.07
2022-10-08T22:48:45.842Z,36.73
2022-10-08T22:51:15.640Z,36.67
2022-10-08T22:53:43.700Z,37.08
2022-10-08T22:56:13.678Z,36.61
2022-10-08T22:58:41.622Z,36.73
2022-10-08T23:01:11.592Z,36.87
2022-10-08T23:03:41.507Z,36.65
2022-10-08T23:06:14.613Z,36.61
2022-10-08T23:08:42.979Z,36.54
2022-10-08T23:11:11.516Z,36.60
2022-10-08T23:13:39.662Z,36.59
2022-10-08T23:16:09.807Z,36.43
2022-10-08T23:18:41.217Z,36.45
2022-10-08T23:21:12.330Z,36.84
2022-10-08T23:23:40.987Z,36.63
2022-10-08T23:26:10.055Z,36.50
2022-10-08T23:28:39.415Z,36.44
2022-10-08T23:31:10.216Z,36.24
2022-10-08T23:33:42.081Z,36.28
2022-10-08T23:36:11.058Z,36.41
2022-10-08T23:38:39.182Z,36.52
2022-10-08T23:41:09.384Z,36.29
2022-10-08T23:43:39.189Z,36.27
2022-10-08T23:46:08.538Z,36.29
2022-10-08T23:48:36.783Z,36.39
2022-10-08T23:51:07.150Z,36.03
2022-10-08T23:53:36.090Z,36.49
2022-10-08T23:56:04.476Z,36.22
2022-10-08T23:58:32.909Z,36.19
